sensor_id;sensor_type;location;lat;lon;timestamp;temperature;humidity
40600;DHT22;26309;50.924;4.754;2024-02-14T00:00:12;10.40;99.90
40600;DHT22;26309;50.924;4.754;2024-02-14T00:02:44;10.40;99.90
40600;DHT22;26309;50.924;4.754;2024-02-14T00:05:10;10.40;99.90
40600;DHT22;26309;50.924;4.754;2024-02-14T00:07:39;10.40;99.90
40600;DHT22;26309;50.924;4.754;2024-02-14T00:10:08;10.50;99.90
40600;DHT22;26309;50.924;4.754;2024-02-14T00:12:35;10.40;99.90
40600;DHT22;26309;50.924;4.754;2024-02-14T00:15:02;10.40;99.90
40600;DHT22;26309;50.924;4.754;2024-02-14T00:17:29;10.40;99.90
40600;DHT22;26309;50.924;4.754;2024-02-14T00:19:55;10.40;99.90
40600;DHT22;26309;50.924;4.754;2024-02-14T00:22:21;10.60;99.90
40600;DHT22;26309;50.924;4.754;2024-02-14T00:24:47;10.50;99.90
40600;DHT22;26309;50.924;4.754;2024-02-14T00:27:13;10.60;99.90
40600;DHT22;26309;50.924;4.754;2024-02-14T00:29:40;10.70;99.90
40600;DHT22;26309;50.924;4.754;2024-02-14T00:32:06;10.70;99.90
40600;DHT22;26309;50.924;4.754;2024-02-14T00:34:32;10.60;99.90
40600;DHT22;26309;50.924;4.754;2024-02-14T00:36:59;10.60;99.90
40600;DHT22;26309;50.924;4.754;2024-02-14T00:39:24;10.60;99.90
40600;DHT22;26309;50.924;4.754;2024-02-14T00:41:50;10.60;99.90
40600;DHT22;26309;50.924;4.754;2024-02-14T00:44:19;10.70;99.90
40600;DHT22;26309;50.924;4.754;2024-02-14T00:46:45;10.70;99.90
40600;DHT22;26309;50.924;4.754;2024-02-14T00:49:11;10.60;99.90
40600;DHT22;26309;50.924;4.754;2024-02-14T00:51:38;10.70;99.90
40600;DHT22;26309;50.924;4.754;2024-02-14T00:54:06;10.60;99.90
40600;DHT22;26309;50.924;4.754;2024-02-14T00:56:33;10.60;99.90
40600;DHT22;26309;50.924;4.754;2024-02-14T00:58:59;10.60;99.90
40600;DHT22;26309;50.924;4.754;2024-02-14T01:01:25;10.60;99.90
40600;DHT22;26309;50.924;4.754;2024-02-14T01:03:51;10.70;99.90
40600;DHT22;26309;50.924;4.754;2024-02-14T01:06:17;10.80;99.90
40600;DHT22;26309;50.924;4.754;2024-02-14T01:08:44;10.70;99.90
40600;DHT22;26309;50.924;4.754;2024-02-14T01:11:10;10.70;99.90
40600;DHT22;26309;50.924;4.754;2024-02-14T01:13:36;10.70;99.90
40600;DHT22;26309;50.924;4.754;2024-02-14T01:16:03;10.60;99.90
40600;DHT22;26309;50.924;4.754;2024-02-14T01:18:30;10.70;99.90
40600;DHT22;26309;50.924;4.754;2024-02-14T01:20:57;10.70;99.90
40600;DHT22;26309;50.924;4.754;2024-02-14T01:23:24;10.70;99.90
40600;DHT22;26309;50.924;4.754;2024-02-14T01:25:50;10.60;99.90
40600;DHT22;26309;50.924;4.754;2024-02-14T01:28:16;10.70;99.90
40600;DHT22;26309;50.924;4.754;2024-02-14T01:30:43;10.70;99.90
40600;DHT22;26309;50.924;4.754;2024-02-14T01:33:09;10.70;99.90
40600;DHT22;26309;50.924;4.754;2024-02-14T01:35:35;10.60;99.90
40600;DHT22;26309;50.924;4.754;2024-02-14T01:38:00;10.60;99.90
40600;DHT22;26309;50.924;4.754;2024-02-14T01:40:29;10.70;99.90
40600;DHT22;26309;50.924;4.754;2024-02-14T01:42:54;10.70;99.90
40600;DHT22;26309;50.924;4.754;2024-02-14T01:45:21;10.70;99.90
40600;DHT22;26309;50.924;4.754;2024-02-14T01:47:51;10.70;99.90
40600;DHT22;26309;50.924;4.754;2024-02-14T01:50:17;10.60;99.90
40600;DHT22;26309;50.924;4.754;2024-02-14T01:52:44;10.70;99.90
40600;DHT22;26309;50.924;4.754;2024-02-14T01:55:11;10.70;99.90
40600;DHT22;26309;50.924;4.754;2024-02-14T01:57:38;10.60;99.90
40600;DHT22;26309;50.924;4.754;2024-02-14T02:00:06;10.50;99.90
40600;DHT22;26309;50.924;4.754;2024-02-14T02:02:35;10.60;99.90
40600;DHT22;26309;50.924;4.754;2024-02-14T02:05:05;10.60;99.90
40600;DHT22;26309;50.924;4.754;2024-02-14T02:07:32;10.60;99.90
40600;DHT22;26309;50.924;4.754;2024-02-14T02:09:58;10.70;99.90
40600;DHT22;26309;50.924;4.754;2024-02-14T02:12:24;10.70;99.90
40600;DHT22;26309;50.924;4.754;2024-02-14T02:14:53;10.70;99.90
40600;DHT22;26309;50.924;4.754;2024-02-14T02:17:19;10.60;99.90
40600;DHT22;26309;50.924;4.754;2024-02-14T02:19:46;10.60;99.90
40600;DHT22;26309;50.924;4.754;2024-02-14T02:22:12;10.60;99.90
40600;DHT22;26309;50.924;4.754;2024-02-14T02:24:38;10.50;99.90
40600;DHT22;26309;50.924;4.754;2024-02-14T02:27:04;10.50;99.90
40600;DHT22;26309;50.924;4.754;2024-02-14T02:29:30;10.50;99.90
40600;DHT22;26309;50.924;4.754;2024-02-14T02:31:58;10.50;99.90
40600;DHT22;26309;50.924;4.754;2024-02-14T02:34:24;10.50;99.90
40600;DHT22;26309;50.924;4.754;2024-02-14T02:36:50;10.50;99.90
40600;DHT22;26309;50.924;4.754;2024-02-14T02:39:16;10.50;99.90
40600;DHT22;26309;50.924;4.754;2024-02-14T02:41:42;10.50;99.90
40600;DHT22;26309;50.924;4.754;2024-02-14T02:44:13;10.60;99.90
40600;DHT22;26309;50.924;4.754;2024-02-14T02:46:39;10.60;99.90
40600;DHT22;26309;50.924;4.754;2024-02-14T02:49:04;10.60;99.90
40600;DHT22;26309;50.924;4.754;2024-02-14T02:51:31;10.70;99.90
40600;DHT22;26309;50.924;4.754;2024-02-14T02:53:56;10.70;99.90
40600;DHT22;26309;50.924;4.754;2024-02-14T02:56:23;10.70;99.90
40600;DHT22;26309;50.924;4.754;2024-02-14T02:58:55;10.80;99.90
40600;DHT22;26309;50.924;4.754;2024-02-14T03:01:21;10.80;99.90
40600;DHT22;26309;50.924;4.754;2024-02-14T03:03:50;10.80;99.90
40600;DHT22;26309;50.924;4.754;2024-02-14T03:06:15;10.70;99.90
40600;DHT22;26309;50.924;4.754;2024-02-14T03:08:41;10.70;99.90
40600;DHT22;26309;50.924;4.754;2024-02-14T03:11:08;10.70;99.90
40600;DHT22;26309;50.924;4.754;2024-02-14T03:13:33;10.70;99.90
40600;DHT22;26309;50.924;4.754;2024-02-14T03:16:01;10.60;99.90
40600;DHT22;26309;50.924;4.754;2024-02-14T03:18:27;10.60;99.90
40600;DHT22;26309;50.924;4.754;2024-02-14T03:20:53;10.70;99.90
40600;DHT22;26309;50.924;4.754;2024-02-14T03:23:21;10.70;99.90
40600;DHT22;26309;50.924;4.754;2024-02-14T03:25:48;10.70;99.90
40600;DHT22;26309;50.924;4.754;2024-02-14T03:28:14;10.80;99.90
40600;DHT22;26309;50.924;4.754;2024-02-14T03:30:40;10.80;99.90
40600;DHT22;26309;50.924;4.754;2024-02-14T03:33:06;10.90;99.90
40600;DHT22;26309;50.924;4.754;2024-02-14T03:35:33;10.90;99.90
40600;DHT22;26309;50.924;4.754;2024-02-14T03:38:03;10.70;99.90
40600;DHT22;26309;50.924;4.754;2024-02-14T03:40:29;10.80;99.90
40600;DHT22;26309;50.924;4.754;2024-02-14T03:42:58;10.90;99.90
40600;DHT22;26309;50.924;4.754;2024-02-14T03:45:23;10.90;99.90
40600;DHT22;26309;50.924;4.754;2024-02-14T03:47:49;11.00;99.90
40600;DHT22;26309;50.924;4.754;2024-02-14T03:50:15;10.90;99.90
40600;DHT22;26309;50.924;4.754;2024-02-14T03:52:41;10.80;99.90
40600;DHT22;26309;50.924;4.754;2024-02-14T03:55:11;10.70;99.90
40600;DHT22;26309;50.924;4.754;2024-02-14T03:57:39;10.70;99.90
40600;DHT22;26309;50.924;4.754;2024-02-14T04:00:06;10.60;99.90
40600;DHT22;26309;50.924;4.754;2024-02-14T04:02:36;10.70;99.90
40600;DHT22;26309;50.924;4.754;2024-02-14T04:05:01;10.80;99.90
40600;DHT22;26309;50.924;4.754;2024-02-14T04:07:31;10.70;99.90
40600;DHT22;26309;50.924;4.754;2024-02-14T04:09:57;10.90;99.90
40600;DHT22;26309;50.924;4.754;2024-02-14T04:12:23;10.80;99.90
40600;DHT22;26309;50.924;4.754;2024-02-14T04:14:49;10.80;99.90
40600;DHT22;26309;50.924;4.754;2024-02-14T04:17:14;10.90;99.90
40600;DHT22;26309;50.924;4.754;2024-02-14T04:19:40;10.90;99.90
40600;DHT22;26309;50.924;4.754;2024-02-14T04:22:06;11.00;99.90
40600;DHT22;26309;50.924;4.754;2024-02-14T04:24:34;11.00;99.90
40600;DHT22;26309;50.924;4.754;2024-02-14T04:27:00;11.00;99.90
40600;DHT22;26309;50.924;4.754;2024-02-14T04:29:28;10.90;99.90
40600;DHT22;26309;50.924;4.754;2024-02-14T04:31:56;10.90;99.90
40600;DHT22;26309;50.924;4.754;2024-02-14T04:34:22;10.90;99.90
40600;DHT22;26309;50.924;4.754;2024-02-14T04:36:50;10.90;99.90
40600;DHT22;26309;50.924;4.754;2024-02-14T04:39:17;11.00;99.90
40600;DHT22;26309;50.924;4.754;2024-02-14T04:41:43;11.00;99.90
40600;DHT22;26309;50.924;4.754;2024-02-14T04:44:09;11.00;99.90
40600;DHT22;26309;50.924;4.754;2024-02-14T04:46:35;10.90;99.90
40600;DHT22;26309;50.924;4.754;2024-02-14T04:49:04;11.00;99.90
40600;DHT22;26309;50.924;4.754;2024-02-14T04:51:30;11.00;99.90
40600;DHT22;26309;50.924;4.754;2024-02-14T04:53:57;11.00;99.90
40600;DHT22;26309;50.924;4.754;2024-02-14T04:56:27;11.00;99.90
40600;DHT22;26309;50.924;4.754;2024-02-14T04:58:53;11.00;99.90
40600;DHT22;26309;50.924;4.754;2024-02-14T05:01:20;11.10;99.90
40600;DHT22;26309;50.924;4.754;2024-02-14T05:03:46;11.10;99.90
40600;DHT22;26309;50.924;4.754;2024-02-14T05:06:13;11.10;99.90
40600;DHT22;26309;50.924;4.754;2024-02-14T05:08:39;11.10;99.90
40600;DHT22;26309;50.924;4.754;2024-02-14T05:11:05;11.10;99.90
40600;DHT22;26309;50.924;4.754;2024-02-14T05:13:31;11.20;99.90
40600;DHT22;26309;50.924;4.754;2024-02-14T05:15:57;11.20;99.90
40600;DHT22;26309;50.924;4.754;2024-02-14T05:18:23;11.30;99.90
40600;DHT22;26309;50.924;4.754;2024-02-14T05:20:49;11.30;99.90
40600;DHT22;26309;50.924;4.754;2024-02-14T05:23:15;11.20;99.90
40600;DHT22;26309;50.924;4.754;2024-02-14T05:25:43;11.10;99.90
40600;DHT22;26309;50.924;4.754;2024-02-14T05:28:09;11.20;99.90
40600;DHT22;26309;50.924;4.754;2024-02-14T05:30:40;11.20;99.90
40600;DHT22;26309;50.924;4.754;2024-02-14T05:33:06;11.20;99.90
40600;DHT22;26309;50.924;4.754;2024-02-14T05:35:32;11.20;99.90
40600;DHT22;26309;50.924;4.754;2024-02-14T05:37:57;11.20;99.90
40600;DHT22;26309;50.924;4.754;2024-02-14T05:40:23;11.30;99.90
40600;DHT22;26309;50.924;4.754;2024-02-14T05:42:50;11.30;99.90
40600;DHT22;26309;50.924;4.754;2024-02-14T05:45:16;11.30;99.90
40600;DHT22;26309;50.924;4.754;2024-02-14T05:47:43;11.20;99.90
40600;DHT22;26309;50.924;4.754;2024-02-14T05:50:09;11.30;99.90
40600;DHT22;26309;50.924;4.754;2024-02-14T05:52:37;11.20;99.90
40600;DHT22;26309;50.924;4.754;2024-02-14T05:55:04;11.30;99.90
40600;DHT22;26309;50.924;4.754;2024-02-14T05:57:31;11.30;99.90
40600;DHT22;26309;50.924;4.754;2024-02-14T05:59:56;11.40;99.90
40600;DHT22;26309;50.924;4.754;2024-02-14T06:02:22;11.40;99.90
40600;DHT22;26309;50.924;4.754;2024-02-14T06:04:48;11.30;99.90
40600;DHT22;26309;50.924;4.754;2024-02-14T06:07:14;11.30;99.90
40600;DHT22;26309;50.924;4.754;2024-02-14T06:09:40;11.30;99.90
40600;DHT22;26309;50.924;4.754;2024-02-14T06:12:06;11.40;99.90
40600;DHT22;26309;50.924;4.754;2024-02-14T06:14:32;11.40;99.90
40600;DHT22;26309;50.924;4.754;2024-02-14T06:17:00;11.30;99.90
40600;DHT22;26309;50.924;4.754;2024-02-14T06:19:27;11.40;99.90
40600;DHT22;26309;50.924;4.754;2024-02-14T06:21:53;11.50;99.90
40600;DHT22;26309;50.924;4.754;2024-02-14T06:24:19;11.30;99.90
40600;DHT22;26309;50.924;4.754;2024-02-14T06:26:48;11.40;99.90
40600;DHT22;26309;50.924;4.754;2024-02-14T06:29:13;11.40;99.90
40600;DHT22;26309;50.924;4.754;2024-02-14T06:31:39;11.30;99.90
40600;DHT22;26309;50.924;4.754;2024-02-14T06:34:05;11.30;99.90
40600;DHT22;26309;50.924;4.754;2024-02-14T06:36:32;11.40;99.90
40600;DHT22;26309;50.924;4.754;2024-02-14T06:38:58;11.30;99.90
40600;DHT22;26309;50.924;4.754;2024-02-14T06:41:24;11.40;99.90
40600;DHT22;26309;50.924;4.754;2024-02-14T06:43:50;11.50;99.90
40600;DHT22;26309;50.924;4.754;2024-02-14T06:46:17;11.50;99.90
40600;DHT22;26309;50.924;4.754;2024-02-14T06:48:43;11.50;99.90
40600;DHT22;26309;50.924;4.754;2024-02-14T06:51:09;11.60;99.90
40600;DHT22;26309;50.924;4.754;2024-02-14T06:53:35;11.60;99.90
40600;DHT22;26309;50.924;4.754;2024-02-14T06:56:01;11.70;99.90
40600;DHT22;26309;50.924;4.754;2024-02-14T06:58:27;11.70;99.90
40600;DHT22;26309;50.924;4.754;2024-02-14T07:00:52;11.70;99.90
40600;DHT22;26309;50.924;4.754;2024-02-14T07:03:18;11.70;99.90
40600;DHT22;26309;50.924;4.754;2024-02-14T07:05:45;11.80;99.90
40600;DHT22;26309;50.924;4.754;2024-02-14T07:08:10;11.80;99.90
40600;DHT22;26309;50.924;4.754;2024-02-14T07:10:36;11.80;99.90
40600;DHT22;26309;50.924;4.754;2024-02-14T07:13:02;11.80;99.90
40600;DHT22;26309;50.924;4.754;2024-02-14T07:15:29;11.80;99.90
40600;DHT22;26309;50.924;4.754;2024-02-14T07:17:55;11.70;99.90
40600;DHT22;26309;50.924;4.754;2024-02-14T07:20:23;11.80;99.90
40600;DHT22;26309;50.924;4.754;2024-02-14T07:22:52;11.80;99.90
40600;DHT22;26309;50.924;4.754;2024-02-14T07:25:22;11.80;99.90
40600;DHT22;26309;50.924;4.754;2024-02-14T07:27:48;11.80;99.90
40600;DHT22;26309;50.924;4.754;2024-02-14T07:30:16;11.80;99.90
40600;DHT22;26309;50.924;4.754;2024-02-14T07:32:46;11.90;99.90
40600;DHT22;26309;50.924;4.754;2024-02-14T07:35:12;11.90;99.90
40600;DHT22;26309;50.924;4.754;2024-02-14T07:37:39;11.90;99.90
40600;DHT22;26309;50.924;4.754;2024-02-14T07:40:05;11.90;99.90
40600;DHT22;26309;50.924;4.754;2024-02-14T07:42:34;12.00;99.90
40600;DHT22;26309;50.924;4.754;2024-02-14T07:45:00;12.00;99.90
40600;DHT22;26309;50.924;4.754;2024-02-14T07:47:29;12.00;99.90
40600;DHT22;26309;50.924;4.754;2024-02-14T07:49:55;12.10;99.90
40600;DHT22;26309;50.924;4.754;2024-02-14T07:52:22;12.20;99.90
40600;DHT22;26309;50.924;4.754;2024-02-14T07:54:52;12.00;99.90
40600;DHT22;26309;50.924;4.754;2024-02-14T07:57:19;12.00;99.90
40600;DHT22;26309;50.924;4.754;2024-02-14T07:59:45;12.10;99.90
40600;DHT22;26309;50.924;4.754;2024-02-14T08:02:11;12.20;99.90
40600;DHT22;26309;50.924;4.754;2024-02-14T08:04:37;12.20;99.90
40600;DHT22;26309;50.924;4.754;2024-02-14T08:07:02;12.20;99.90
40600;DHT22;26309;50.924;4.754;2024-02-14T08:09:29;12.30;99.90
40600;DHT22;26309;50.924;4.754;2024-02-14T08:11:55;12.30;99.90
40600;DHT22;26309;50.924;4.754;2024-02-14T08:14:21;12.40;99.90
40600;DHT22;26309;50.924;4.754;2024-02-14T08:16:47;12.40;99.90
40600;DHT22;26309;50.924;4.754;2024-02-14T08:19:13;12.40;99.90
40600;DHT22;26309;50.924;4.754;2024-02-14T08:21:39;12.40;99.90
40600;DHT22;26309;50.924;4.754;2024-02-14T08:24:06;12.30;99.90
40600;DHT22;26309;50.924;4.754;2024-02-14T08:26:31;12.40;99.90
40600;DHT22;26309;50.924;4.754;2024-02-14T08:28:57;12.40;99.90
40600;DHT22;26309;50.924;4.754;2024-02-14T08:31:26;12.40;99.90
40600;DHT22;26309;50.924;4.754;2024-02-14T08:33:52;12.50;99.90
40600;DHT22;26309;50.924;4.754;2024-02-14T08:36:19;12.50;99.90
40600;DHT22;26309;50.924;4.754;2024-02-14T08:38:45;12.50;99.90
40600;DHT22;26309;50.924;4.754;2024-02-14T08:41:11;12.60;99.90
40600;DHT22;26309;50.924;4.754;2024-02-14T08:43:37;12.50;99.90
40600;DHT22;26309;50.924;4.754;2024-02-14T08:46:03;12.40;99.90
40600;DHT22;26309;50.924;4.754;2024-02-14T08:48:39;12.40;99.90
40600;DHT22;26309;50.924;4.754;2024-02-14T08:51:12;12.30;99.90
40600;DHT22;26309;50.924;4.754;2024-02-14T08:53:39;12.40;99.90
40600;DHT22;26309;50.924;4.754;2024-02-14T08:56:05;12.50;99.90
40600;DHT22;26309;50.924;4.754;2024-02-14T08:58:30;12.50;99.90
40600;DHT22;26309;50.924;4.754;2024-02-14T09:00:56;12.50;99.90
40600;DHT22;26309;50.924;4.754;2024-02-14T09:03:22;12.50;99.90
40600;DHT22;26309;50.924;4.754;2024-02-14T09:05:48;12.60;99.90
40600;DHT22;26309;50.924;4.754;2024-02-14T09:08:14;12.50;99.90
40600;DHT22;26309;50.924;4.754;2024-02-14T09:10:40;12.50;99.90
40600;DHT22;26309;50.924;4.754;2024-02-14T09:13:06;12.60;99.90
40600;DHT22;26309;50.924;4.754;2024-02-14T09:15:33;12.50;99.90
40600;DHT22;26309;50.924;4.754;2024-02-14T09:17:59;12.70;99.90
40600;DHT22;26309;50.924;4.754;2024-02-14T09:20:29;12.60;99.90
40600;DHT22;26309;50.924;4.754;2024-02-14T09:22:56;12.60;99.90
40600;DHT22;26309;50.924;4.754;2024-02-14T09:25:23;12.50;99.90
40600;DHT22;26309;50.924;4.754;2024-02-14T09:27:51;12.50;99.90
40600;DHT22;26309;50.924;4.754;2024-02-14T09:30:16;12.40;99.90
40600;DHT22;26309;50.924;4.754;2024-02-14T09:32:46;12.50;99.90
40600;DHT22;26309;50.924;4.754;2024-02-14T09:35:13;12.50;99.90
40600;DHT22;26309;50.924;4.754;2024-02-14T09:37:39;12.60;99.90
40600;DHT22;26309;50.924;4.754;2024-02-14T09:40:06;12.70;99.90
40600;DHT22;26309;50.924;4.754;2024-02-14T09:42:53;12.80;99.90
40600;DHT22;26309;50.924;4.754;2024-02-14T09:45:23;12.70;99.90
40600;DHT22;26309;50.924;4.754;2024-02-14T09:47:50;12.70;99.90
40600;DHT22;26309;50.924;4.754;2024-02-14T09:50:17;12.70;99.90
40600;DHT22;26309;50.924;4.754;2024-02-14T09:52:45;12.70;99.90
40600;DHT22;26309;50.924;4.754;2024-02-14T09:55:15;12.80;99.90
40600;DHT22;26309;50.924;4.754;2024-02-14T09:57:42;12.90;99.90
40600;DHT22;26309;50.924;4.754;2024-02-14T10:00:12;12.90;99.90
40600;DHT22;26309;50.924;4.754;2024-02-14T10:02:41;13.00;99.90
40600;DHT22;26309;50.924;4.754;2024-02-14T10:05:07;12.90;99.90
40600;DHT22;26309;50.924;4.754;2024-02-14T10:07:40;12.90;99.90
40600;DHT22;26309;50.924;4.754;2024-02-14T10:10:07;12.90;99.90
40600;DHT22;26309;50.924;4.754;2024-02-14T10:12:33;12.80;99.90
40600;DHT22;26309;50.924;4.754;2024-02-14T10:14:59;12.80;99.90
40600;DHT22;26309;50.924;4.754;2024-02-14T10:17:26;12.80;99.90
40600;DHT22;26309;50.924;4.754;2024-02-14T10:19:59;12.90;99.90
40600;DHT22;26309;50.924;4.754;2024-02-14T10:22:35;12.70;99.90
40600;DHT22;26309;50.924;4.754;2024-02-14T10:25:05;12.90;99.90
40600;DHT22;26309;50.924;4.754;2024-02-14T10:27:38;12.90;99.90
40600;DHT22;26309;50.924;4.754;2024-02-14T10:30:05;12.90;99.90
40600;DHT22;26309;50.924;4.754;2024-02-14T10:32:41;13.00;99.90
40600;DHT22;26309;50.924;4.754;2024-02-14T10:35:13;13.10;99.90
40600;DHT22;26309;50.924;4.754;2024-02-14T10:37:39;13.30;99.90
40600;DHT22;26309;50.924;4.754;2024-02-14T10:40:06;13.40;99.90
40600;DHT22;26309;50.924;4.754;2024-02-14T10:42:35;13.20;99.90
40600;DHT22;26309;50.924;4.754;2024-02-14T10:45:02;13.20;99.90
40600;DHT22;26309;50.924;4.754;2024-02-14T10:47:35;13.20;99.90
40600;DHT22;26309;50.924;4.754;2024-02-14T10:50:06;13.30;99.90
40600;DHT22;26309;50.924;4.754;2024-02-14T10:52:35;13.40;99.90
40600;DHT22;26309;50.924;4.754;2024-02-14T10:55:05;13.40;99.90
40600;DHT22;26309;50.924;4.754;2024-02-14T10:57:32;13.30;99.90
40600;DHT22;26309;50.924;4.754;2024-02-14T11:00:06;13.30;99.90
40600;DHT22;26309;50.924;4.754;2024-02-14T11:02:34;13.40;99.90
40600;DHT22;26309;50.924;4.754;2024-02-14T11:05:01;13.40;99.90
40600;DHT22;26309;50.924;4.754;2024-02-14T11:07:28;13.40;99.90
40600;DHT22;26309;50.924;4.754;2024-02-14T11:10:05;13.40;99.90
40600;DHT22;26309;50.924;4.754;2024-02-14T11:12:36;13.50;99.90
40600;DHT22;26309;50.924;4.754;2024-02-14T11:15:20;13.40;99.90
40600;DHT22;26309;50.924;4.754;2024-02-14T11:17:46;13.50;99.90
40600;DHT22;26309;50.924;4.754;2024-02-14T11:20:33;13.50;99.90
40600;DHT22;26309;50.924;4.754;2024-02-14T11:23:05;13.40;99.90
40600;DHT22;26309;50.924;4.754;2024-02-14T11:25:37;13.30;99.90
40600;DHT22;26309;50.924;4.754;2024-02-14T11:28:17;13.20;99.90
40600;DHT22;26309;50.924;4.754;2024-02-14T11:30:47;13.30;99.90
40600;DHT22;26309;50.924;4.754;2024-02-14T11:33:20;13.40;99.90
40600;DHT22;26309;50.924;4.754;2024-02-14T11:35:49;13.50;99.90
40600;DHT22;26309;50.924;4.754;2024-02-14T11:38:19;13.50;99.90
40600;DHT22;26309;50.924;4.754;2024-02-14T11:40:45;13.50;99.90
40600;DHT22;26309;50.924;4.754;2024-02-14T11:43:18;13.40;99.90
40600;DHT22;26309;50.924;4.754;2024-02-14T11:45:48;13.40;99.90
40600;DHT22;26309;50.924;4.754;2024-02-14T11:48:18;13.40;99.90
40600;DHT22;26309;50.924;4.754;2024-02-14T11:50:49;13.40;99.90
40600;DHT22;26309;50.924;4.754;2024-02-14T11:53:18;13.30;99.90
40600;DHT22;26309;50.924;4.754;2024-02-14T11:55:49;13.30;99.90
40600;DHT22;26309;50.924;4.754;2024-02-14T11:58:16;13.20;99.90
40600;DHT22;26309;50.924;4.754;2024-02-14T12:00:44;13.20;99.90
40600;DHT22;26309;50.924;4.754;2024-02-14T12:03:21;13.30;99.90
40600;DHT22;26309;50.924;4.754;2024-02-14T12:05:50;13.30;99.90
40600;DHT22;26309;50.924;4.754;2024-02-14T12:08:17;13.40;99.90
40600;DHT22;26309;50.924;4.754;2024-02-14T12:10:44;13.40;99.90
40600;DHT22;26309;50.924;4.754;2024-02-14T12:13:21;13.40;99.90
40600;DHT22;26309;50.924;4.754;2024-02-14T12:15:52;13.40;99.90
40600;DHT22;26309;50.924;4.754;2024-02-14T12:18:19;13.30;99.90
40600;DHT22;26309;50.924;4.754;2024-02-14T12:20:47;13.30;99.90
40600;DHT22;26309;50.924;4.754;2024-02-14T12:23:17;13.40;99.90
40600;DHT22;26309;50.924;4.754;2024-02-14T12:25:44;13.40;99.90
40600;DHT22;26309;50.924;4.754;2024-02-14T12:28:17;13.50;99.90
40600;DHT22;26309;50.924;4.754;2024-02-14T12:30:50;13.70;99.90
40600;DHT22;26309;50.924;4.754;2024-02-14T12:33:22;13.80;99.90
40600;DHT22;26309;50.924;4.754;2024-02-14T12:35:50;13.70;99.90
40600;DHT22;26309;50.924;4.754;2024-02-14T12:38:19;13.80;99.90
40600;DHT22;26309;50.924;4.754;2024-02-14T12:40:45;13.90;99.90
40600;DHT22;26309;50.924;4.754;2024-02-14T12:43:13;13.90;99.90
40600;DHT22;26309;50.924;4.754;2024-02-14T12:45:39;13.90;99.90
40600;DHT22;26309;50.924;4.754;2024-02-14T12:48:06;13.90;99.90
40600;DHT22;26309;50.924;4.754;2024-02-14T12:50:34;13.80;99.90
40600;DHT22;26309;50.924;4.754;2024-02-14T12:53:01;13.80;99.90
40600;DHT22;26309;50.924;4.754;2024-02-14T12:55:27;13.90;99.90
40600;DHT22;26309;50.924;4.754;2024-02-14T12:57:56;13.90;99.90
40600;DHT22;26309;50.924;4.754;2024-02-14T13:00:22;13.80;99.90
40600;DHT22;26309;50.924;4.754;2024-02-14T13:02:49;13.80;99.90
40600;DHT22;26309;50.924;4.754;2024-02-14T13:05:15;13.80;99.90
40600;DHT22;26309;50.924;4.754;2024-02-14T13:07:42;14.00;99.90
40600;DHT22;26309;50.924;4.754;2024-02-14T13:10:08;13.80;99.90
40600;DHT22;26309;50.924;4.754;2024-02-14T13:12:37;13.80;99.90
40600;DHT22;26309;50.924;4.754;2024-02-14T13:15:05;13.90;99.90
40600;DHT22;26309;50.924;4.754;2024-02-14T13:17:33;13.90;99.90
40600;DHT22;26309;50.924;4.754;2024-02-14T13:19:59;14.00;99.90
40600;DHT22;26309;50.924;4.754;2024-02-14T13:22:28;13.90;99.90
40600;DHT22;26309;50.924;4.754;2024-02-14T13:24:54;13.90;99.90
40600;DHT22;26309;50.924;4.754;2024-02-14T13:27:22;13.90;99.90
40600;DHT22;26309;50.924;4.754;2024-02-14T13:29:49;13.90;99.90
40600;DHT22;26309;50.924;4.754;2024-02-14T13:32:15;14.00;99.90
40600;DHT22;26309;50.924;4.754;2024-02-14T13:34:41;14.00;99.90
40600;DHT22;26309;50.924;4.754;2024-02-14T13:37:09;13.90;99.90
40600;DHT22;26309;50.924;4.754;2024-02-14T13:39:36;14.00;99.90
40600;DHT22;26309;50.924;4.754;2024-02-14T13:42:02;14.10;99.90
40600;DHT22;26309;50.924;4.754;2024-02-14T13:44:29;13.90;99.90
40600;DHT22;26309;50.924;4.754;2024-02-14T13:46:55;13.80;99.90
40600;DHT22;26309;50.924;4.754;2024-02-14T13:49:21;13.80;99.90
40600;DHT22;26309;50.924;4.754;2024-02-14T13:51:52;13.90;99.90
40600;DHT22;26309;50.924;4.754;2024-02-14T13:54:19;14.00;99.90
40600;DHT22;26309;50.924;4.754;2024-02-14T13:56:45;14.10;99.90
40600;DHT22;26309;50.924;4.754;2024-02-14T13:59:11;14.00;99.90
40600;DHT22;26309;50.924;4.754;2024-02-14T14:01:38;14.10;99.90
40600;DHT22;26309;50.924;4.754;2024-02-14T14:04:03;14.10;99.90
40600;DHT22;26309;50.924;4.754;2024-02-14T14:06:30;14.10;99.90
40600;DHT22;26309;50.924;4.754;2024-02-14T14:08:56;14.00;99.90
40600;DHT22;26309;50.924;4.754;2024-02-14T14:11:22;13.90;99.90
40600;DHT22;26309;50.924;4.754;2024-02-14T14:13:48;13.90;99.90
40600;DHT22;26309;50.924;4.754;2024-02-14T14:16:15;13.90;99.90
40600;DHT22;26309;50.924;4.754;2024-02-14T14:18:41;14.10;99.90
40600;DHT22;26309;50.924;4.754;2024-02-14T14:21:07;14.10;99.90
40600;DHT22;26309;50.924;4.754;2024-02-14T14:23:33;14.00;99.90
40600;DHT22;26309;50.924;4.754;2024-02-14T14:25:59;14.10;99.90
40600;DHT22;26309;50.924;4.754;2024-02-14T14:28:26;14.20;99.90
40600;DHT22;26309;50.924;4.754;2024-02-14T14:30:53;14.00;99.90
40600;DHT22;26309;50.924;4.754;2024-02-14T14:33:22;14.10;99.90
40600;DHT22;26309;50.924;4.754;2024-02-14T14:35:48;13.90;99.90
40600;DHT22;26309;50.924;4.754;2024-02-14T14:38:22;14.00;99.90
40600;DHT22;26309;50.924;4.754;2024-02-14T14:40:48;14.00;99.90
40600;DHT22;26309;50.924;4.754;2024-02-14T14:43:14;14.00;99.90
40600;DHT22;26309;50.924;4.754;2024-02-14T14:45:40;14.00;99.90
40600;DHT22;26309;50.924;4.754;2024-02-14T14:48:07;14.10;99.90
40600;DHT22;26309;50.924;4.754;2024-02-14T14:50:36;14.10;99.90
40600;DHT22;26309;50.924;4.754;2024-02-14T14:53:03;14.20;99.90
40600;DHT22;26309;50.924;4.754;2024-02-14T14:58:17;14.10;99.90
40600;DHT22;26309;50.924;4.754;2024-02-14T15:00:43;14.10;99.90
40600;DHT22;26309;50.924;4.754;2024-02-14T15:03:10;14.20;99.90
40600;DHT22;26309;50.924;4.754;2024-02-14T15:05:38;14.20;99.90
40600;DHT22;26309;50.924;4.754;2024-02-14T15:08:05;14.40;99.90
40600;DHT22;26309;50.924;4.754;2024-02-14T15:10:35;14.30;99.90
40600;DHT22;26309;50.924;4.754;2024-02-14T15:13:05;14.40;99.90
40600;DHT22;26309;50.924;4.754;2024-02-14T15:15:32;14.30;99.90
40600;DHT22;26309;50.924;4.754;2024-02-14T15:17:58;14.30;99.90
40600;DHT22;26309;50.924;4.754;2024-02-14T15:20:24;14.40;99.90
40600;DHT22;26309;50.924;4.754;2024-02-14T15:22:50;14.40;99.90
40600;DHT22;26309;50.924;4.754;2024-02-14T15:25:15;14.60;99.90
40600;DHT22;26309;50.924;4.754;2024-02-14T15:27:42;14.60;99.90
40600;DHT22;26309;50.924;4.754;2024-02-14T15:30:23;14.60;99.90
40600;DHT22;26309;50.924;4.754;2024-02-14T15:33:08;14.40;99.90